Overview Statistics Trail Chart Weather Telemetry Raw packets
 

This is the latest recevied weather packets stored in our database for station/object OM5AST-13. If no packets are shown the sender has not sent any weather packets the latest 10 day(s).

<< 17 18 19 20 21 22 23 >>
Time Temp. Humidity Pressure Rain* Wind** Luminosity Snow
1788073435 22.22° C 58% - 0 mm - 0 W/m² -
1788072235 21.67° C 60% - 0 mm - 0 W/m² -
1788071035 20.56° C 62% - 0 mm - 0 W/m² -
1788069835 20.56° C 62% - 0 mm - 0 W/m² -
1788068635 20° C 65% - 0 mm - 0 W/m² -
1788067435 19.44° C 65% - 0 mm - 0 W/m² -
1788066235 18.89° C 67% - 0 mm - 0 W/m² -
1788065035 18.33° C 67% - 0 mm - 0 W/m² -
1788063835 18.89° C 66% - 0 mm - 0 W/m² -
1788062635 18.89° C 66% - 0 mm - 0 W/m² -
1788061435 18.89° C 66% - 0 mm - 0 W/m² -
1788060235 19.44° C 65% - 0 mm - 0 W/m² -
1788059035 19.44° C 64% - 0 mm - 0 W/m² -
1788057835 19.44° C 65% - 0 mm - 0 W/m² -
1788056635 19.44° C 67% - 0 mm - 0 W/m² -
1788055435 19.44° C 66% - 0 mm - 0 W/m² -
1788054235 20° C 65% - 0 mm - 0 W/m² -
1788053035 20° C 65% - 0 mm - 0 W/m² -
1788051835 20.56° C 64% - 0 mm - 0 W/m² -
1788050635 20° C 64% - 0 mm - 0 W/m² -
1788049435 20.56° C 62% - 0 mm - 0 W/m² -
1788048235 20.56° C 63% - 0 mm - 0 W/m² -
1788047035 20.56° C 63% - 0 mm - 0 W/m² -
1788045835 21.11° C 60% - 0 mm - 0 W/m² -
1788044635 20.56° C 60% - 0 mm - 0 W/m² -

* Rain latest hour (hover to see other rain measurements)
** Current wind speed in m/s (hover to see current wind gust speed)